Ikuta — JD2239 — position and weather

sailwx.info

Track history (hours):
 
Tides and Currents Weather Stations Pressure Air Temp Water Temp Dewpoint Dewpoint Depression Visibility Wind Speed Wind Dir Waves Ship Positions

Ikuta

Last reported at 2017-Dec-02 20:35 UTC. Time now 2017-Dec-12 12:29 UTC.
Position N 35°05' E 140°19'.
Warning: this ship's position is 9 days out of date.

Length 96 m; draft 3.6 m.

Type: Cargo ship. MMSI: 431501857.

Date/timePositionNaut miles runAvg speedWind from/ knotsBaromVisibWave heightAir tempDewpointWater temp
2017-Dec-02 20:35N 35°05' E 140°19'711.1
2017-Dec-02 19:56N 35°01' E 140°12'510.6
2017-Dec-02 19:29N 34°58' E 140°07'1310.6
2017-Dec-02 18:19N 34°52' E 139°53'411.3
2017-Dec-02 17:56N 34°52' E 139°48'612.4
2017-Dec-02 17:30N 34°57' E 139°44'611.6
2017-Dec-02 17:00N 35°02' E 139°43'612.3
2017-Dec-02 16:31N 35°08' E 139°45'612.0
2017-Dec-02 16:01N 35°14' E 139°46'611.1
2017-Dec-02 15:30N 35°19' E 139°43'510.5
2017-Dec-02 15:01N 35°24' E 139°41'0 0.2
2017-Dec-02 14:28N 35°24' E 139°41'0 0.0
2017-Dec-02 13:58N 35°24' E 139°41'0 0.0
2017-Dec-02 13:28N 35°24' E 139°41'0 0.0
2017-Dec-02 12:58N 35°24' E 139°41'0 0.0
2017-Dec-02 12:28N 35°24' E 139°41'0 0.0
2017-Dec-02 11:58N 35°24' E 139°41'0 0.0
2017-Dec-02 11:30N 35°24' E 139°41'1 2.5
2017-Dec-02 11:00N 35°23' E 139°40'2 4.3
2017-Dec-02 10:30N 35°23' E 139°43'0 0.8
2017-Dec-02 09:58N 35°23' E 139°43'0 0.0
2017-Dec-02 09:28N 35°23' E 139°43'0 0.0
2017-Dec-02 08:58N 35°23' E 139°43'0 0.0
2017-Dec-02 08:28N 35°23' E 139°43'0 0.0
2017-Dec-02 07:58N 35°23' E 139°43'0 0.0
2017-Dec-02 07:28N 35°23' E 139°43'0 0.0
2017-Dec-02 06:58N 35°23' E 139°43'3 5.9
2017-Dec-02 06:30N 35°20' E 139°43'611.2
2017-Dec-02 06:01N 35°15' E 139°47'611.2
2017-Dec-02 05:30N 35°10' E 139°46'611.4
2017-Dec-02 05:00N 35°04' E 139°45'612.6
2017-Dec-02 04:30N 34°58' E 139°43'19 9.4
2017-Dec-02 02:28N 34°58' E 140°06'  
2017-Nov-29 09:26N 35°04' E 140°21'810.7
2017-Nov-29 08:43N 35°00' E 140°13'511.3
2017-Nov-29 08:14N 34°58' E 140°07'1511.2
2017-Nov-29 06:54N 34°53' E 139°50'511.5
2017-Nov-29 06:30N 34°56' E 139°45'611.9
2017-Nov-29 06:00N 35°01' E 139°43'611.5
2017-Nov-29 05:30N 35°07' E 139°45'611.7
2017-Nov-29 05:00N 35°13' E 139°46'611.1
2017-Nov-29 04:31N 35°18' E 139°44'611.0
2017-Nov-29 04:00N 35°23' E 139°42'611.3
2017-Nov-29 03:30N 35°27' E 139°47'610.9
2017-Nov-29 03:00N 35°32' E 139°51'510.4
2017-Nov-29 02:30N 35°36' E 139°47'0 0.9
2017-Nov-29 01:59N 35°36' E 139°47'0 0.0
2017-Nov-29 01:29N 35°36' E 139°47'0 0.0
2017-Nov-29 00:50N 35°36' E 139°47'0 0.0
2017-Nov-29 00:29N 35°36' E 139°47'0 0.0
2017-Nov-28 23:56N 35°36' E 139°47'0 0.0
2017-Nov-28 23:29N 35°36' E 139°47'4 7.8
2017-Nov-28 23:00N 35°33' E 139°50'2 3.7
2017-Nov-28 22:30N 35°35' E 139°52'0 0.0
2017-Nov-28 22:00N 35°35' E 139°52'0 0.1
2017-Nov-28 21:30N 35°35' E 139°52'0 0.0
2017-Nov-28 20:57N 35°35' E 139°52'0 0.0
2017-Nov-28 20:30N 35°35' E 139°52'0 0.0
2017-Nov-28 20:00N 35°35' E 139°52'0 0.0
2017-Nov-28 19:30N 35°35' E 139°52'0 0.0
2017-Nov-28 18:54N 35°35' E 139°52'0 0.0
2017-Nov-28 18:27N 35°35' E 139°52'0 0.0
2017-Nov-28 18:00N 35°35' E 139°52'0 0.0
2017-Nov-28 17:30N 35°35' E 139°52'0 0.0
2017-Nov-28 17:00N 35°35' E 139°52'0 0.0
2017-Nov-28 16:30N 35°35' E 139°52'1 1.2
2017-Nov-28 16:00N 35°34' E 139°52'1111.3
2017-Nov-28 15:00N 35°25' E 139°43'2 4.3
2017-Nov-28 14:28N 35°24' E 139°41'0 0.0
2017-Nov-28 13:58N 35°24' E 139°41'0 0.1
2017-Nov-28 13:31N 35°24' E 139°41'1 1.7
2017-Nov-28 13:00N 35°23' E 139°40'2 4.3
2017-Nov-28 12:31N 35°23' E 139°43'1 1.8
2017-Nov-28 12:00N 35°23' E 139°44'0 0.1
2017-Nov-28 11:30N 35°23' E 139°43'1 1.1
2017-Nov-28 11:01N 35°22' E 139°43'611.3
2017-Nov-28 10:30N 35°17' E 139°46'611.3
2017-Nov-28 10:00N 35°11' E 139°46'611.7
2017-Nov-28 09:30N 35°05' E 139°45'612.1
2017-Nov-28 09:00N 34°59' E 139°44'611.3
2017-Nov-28 08:30N 34°54' E 139°46'  
2017-Nov-25 11:43N 35°04' E 140°19'712.1
2017-Nov-25 11:09N 35°00' E 140°13'411.2
2017-Nov-25 10:49N 34°58' E 140°09'1610.9
2017-Nov-25 09:18N 34°53' E 139°50'310.3
2017-Nov-25 09:00N 34°54' E 139°46'611.2
2017-Nov-25 08:30N 34°59' E 139°43'611.6
2017-Nov-25 08:00N 35°04' E 139°45'611.7
2017-Nov-25 07:30N 35°10' E 139°46'611.4
2017-Nov-25 07:00N 35°16' E 139°46'611.8
2017-Nov-25 06:31N 35°21' E 139°42'4 7.0
2017-Nov-25 05:59N 35°24' E 139°41'0 0.0
2017-Nov-25 05:29N 35°24' E 139°41'0 0.0
2017-Nov-25 04:59N 35°24' E 139°41'0 0.0
2017-Nov-25 04:30N 35°24' E 139°41'0 0.0
2017-Nov-25 03:59N 35°24' E 139°41'0 0.0
2017-Nov-25 03:29N 35°24' E 139°41'0 0.0
2017-Nov-25 02:59N 35°24' E 139°41'0 0.0
2017-Nov-25 02:29N 35°24' E 139°41'0 0.0
2017-Nov-25 01:59N 35°24' E 139°41'0 0.1
2017-Nov-25 01:30N 35°24' E 139°41'2 3.0
2017-Nov-25 01:00N 35°25' E 139°42'2 2.8
2017-Nov-25 00:28N 35°26' E 139°41'0 0.0
2017-Nov-24 23:58N 35°26' E 139°41'0 0.0
2017-Nov-24 23:28N 35°26' E 139°41'0 0.0
2017-Nov-24 23:01N 35°26' E 139°41'1 3.0
2017-Nov-24 22:31N 35°26' E 139°42'4 7.2
2017-Nov-24 22:01N 35°23' E 139°43'0 0.3
2017-Nov-24 21:28N 35°23' E 139°44'0 0.1
2017-Nov-24 20:58N 35°23' E 139°44'0 0.1
2017-Nov-24 20:28N 35°23' E 139°44'0 0.0
2017-Nov-24 19:58N 35°23' E 139°44'0 0.0
2017-Nov-24 19:28N 35°23' E 139°44'0 0.1
2017-Nov-24 18:58N 35°23' E 139°44'0 0.0
2017-Nov-24 18:28N 35°23' E 139°44'0 0.0
2017-Nov-24 17:58N 35°23' E 139°44'0 0.0
2017-Nov-24 17:28N 35°23' E 139°44'0 0.0
2017-Nov-24 16:55N 35°23' E 139°44'0 0.0
2017-Nov-24 16:25N 35°23' E 139°44'0 0.2
2017-Nov-24 16:00N 35°23' E 139°44'510.0
2017-Nov-24 15:30N 35°18' E 139°45'510.7
2017-Nov-24 15:00N 35°13' E 139°47'611.9
2017-Nov-24 14:30N 35°07' E 139°46'612.0
2017-Nov-24 14:00N 35°01' E 139°44'  
Track history (hours):
 
Tides and Currents Weather Stations Pressure Air Temp Water Temp Dewpoint Dewpoint Depression Visibility Wind Speed Wind Dir Waves Ship Positions

Ikuta

Last reported at 2017-Dec-02 20:35 UTC. Time now 2017-Dec-12 12:29 UTC.
Position N 35°05' E 140°19'.
Warning: this ship's position is 9 days out of date.

Length 96 m; draft 3.6 m.

Type: Cargo ship. MMSI: 431501857.

Date/timePositionNaut miles runAvg speedWind from/ knotsBaromVisibWave heightAir tempDewpointWater temp
2017-Dec-02 20:35N 35°05' E 140°19'711.1
2017-Dec-02 19:56N 35°01' E 140°12'510.6
2017-Dec-02 19:29N 34°58' E 140°07'1310.6
2017-Dec-02 18:19N 34°52' E 139°53'411.3
2017-Dec-02 17:56N 34°52' E 139°48'612.4
2017-Dec-02 17:30N 34°57' E 139°44'611.6
2017-Dec-02 17:00N 35°02' E 139°43'612.3
2017-Dec-02 16:31N 35°08' E 139°45'612.0
2017-Dec-02 16:01N 35°14' E 139°46'611.1
2017-Dec-02 15:30N 35°19' E 139°43'510.5
2017-Dec-02 15:01N 35°24' E 139°41'0 0.2
2017-Dec-02 14:28N 35°24' E 139°41'0 0.0
2017-Dec-02 13:58N 35°24' E 139°41'0 0.0
2017-Dec-02 13:28N 35°24' E 139°41'0 0.0
2017-Dec-02 12:58N 35°24' E 139°41'0 0.0
2017-Dec-02 12:28N 35°24' E 139°41'0 0.0
2017-Dec-02 11:58N 35°24' E 139°41'0 0.0
2017-Dec-02 11:30N 35°24' E 139°41'1 2.5
2017-Dec-02 11:00N 35°23' E 139°40'2 4.3
2017-Dec-02 10:30N 35°23' E 139°43'0 0.8
2017-Dec-02 09:58N 35°23' E 139°43'0 0.0
2017-Dec-02 09:28N 35°23' E 139°43'0 0.0
2017-Dec-02 08:58N 35°23' E 139°43'0 0.0
2017-Dec-02 08:28N 35°23' E 139°43'0 0.0
2017-Dec-02 07:58N 35°23' E 139°43'0 0.0
2017-Dec-02 07:28N 35°23' E 139°43'0 0.0
2017-Dec-02 06:58N 35°23' E 139°43'3 5.9
2017-Dec-02 06:30N 35°20' E 139°43'611.2
2017-Dec-02 06:01N 35°15' E 139°47'611.2
2017-Dec-02 05:30N 35°10' E 139°46'611.4
2017-Dec-02 05:00N 35°04' E 139°45'612.6
2017-Dec-02 04:30N 34°58' E 139°43'19 9.4
2017-Dec-02 02:28N 34°58' E 140°06'  
2017-Nov-29 09:26N 35°04' E 140°21'810.7
2017-Nov-29 08:43N 35°00' E 140°13'511.3
2017-Nov-29 08:14N 34°58' E 140°07'1511.2
2017-Nov-29 06:54N 34°53' E 139°50'511.5
2017-Nov-29 06:30N 34°56' E 139°45'611.9
2017-Nov-29 06:00N 35°01' E 139°43'611.5
2017-Nov-29 05:30N 35°07' E 139°45'611.7
2017-Nov-29 05:00N 35°13' E 139°46'611.1
2017-Nov-29 04:31N 35°18' E 139°44'611.0
2017-Nov-29 04:00N 35°23' E 139°42'611.3
2017-Nov-29 03:30N 35°27' E 139°47'610.9
2017-Nov-29 03:00N 35°32' E 139°51'510.4
2017-Nov-29 02:30N 35°36' E 139°47'0 0.9
2017-Nov-29 01:59N 35°36' E 139°47'0 0.0
2017-Nov-29 01:29N 35°36' E 139°47'0 0.0
2017-Nov-29 00:50N 35°36' E 139°47'0 0.0
2017-Nov-29 00:29N 35°36' E 139°47'0 0.0
2017-Nov-28 23:56N 35°36' E 139°47'0 0.0
2017-Nov-28 23:29N 35°36' E 139°47'4 7.8
2017-Nov-28 23:00N 35°33' E 139°50'2 3.7
2017-Nov-28 22:30N 35°35' E 139°52'0 0.0
2017-Nov-28 22:00N 35°35' E 139°52'0 0.1
2017-Nov-28 21:30N 35°35' E 139°52'0 0.0
2017-Nov-28 20:57N 35°35' E 139°52'0 0.0
2017-Nov-28 20:30N 35°35' E 139°52'0 0.0
2017-Nov-28 20:00N 35°35' E 139°52'0 0.0
2017-Nov-28 19:30N 35°35' E 139°52'0 0.0
2017-Nov-28 18:54N 35°35' E 139°52'0 0.0
2017-Nov-28 18:27N 35°35' E 139°52'0 0.0
2017-Nov-28 18:00N 35°35' E 139°52'0 0.0
2017-Nov-28 17:30N 35°35' E 139°52'0 0.0
2017-Nov-28 17:00N 35°35' E 139°52'0 0.0
2017-Nov-28 16:30N 35°35' E 139°52'1 1.2
2017-Nov-28 16:00N 35°34' E 139°52'1111.3
2017-Nov-28 15:00N 35°25' E 139°43'2 4.3
2017-Nov-28 14:28N 35°24' E 139°41'0 0.0
2017-Nov-28 13:58N 35°24' E 139°41'0 0.1
2017-Nov-28 13:31N 35°24' E 139°41'1 1.7
2017-Nov-28 13:00N 35°23' E 139°40'2 4.3
2017-Nov-28 12:31N 35°23' E 139°43'1 1.8
2017-Nov-28 12:00N 35°23' E 139°44'0 0.1
2017-Nov-28 11:30N 35°23' E 139°43'1 1.1
2017-Nov-28 11:01N 35°22' E 139°43'611.3
2017-Nov-28 10:30N 35°17' E 139°46'611.3
2017-Nov-28 10:00N 35°11' E 139°46'611.7
2017-Nov-28 09:30N 35°05' E 139°45'612.1
2017-Nov-28 09:00N 34°59' E 139°44'611.3
2017-Nov-28 08:30N 34°54' E 139°46'  
2017-Nov-25 11:43N 35°04' E 140°19'712.1
2017-Nov-25 11:09N 35°00' E 140°13'411.2
2017-Nov-25 10:49N 34°58' E 140°09'1610.9
2017-Nov-25 09:18N 34°53' E 139°50'310.3
2017-Nov-25 09:00N 34°54' E 139°46'611.2
2017-Nov-25 08:30N 34°59' E 139°43'611.6
2017-Nov-25 08:00N 35°04' E 139°45'611.7
2017-Nov-25 07:30N 35°10' E 139°46'611.4
2017-Nov-25 07:00N 35°16' E 139°46'611.8
2017-Nov-25 06:31N 35°21' E 139°42'4 7.0
2017-Nov-25 05:59N 35°24' E 139°41'0 0.0
2017-Nov-25 05:29N 35°24' E 139°41'0 0.0
2017-Nov-25 04:59N 35°24' E 139°41'0 0.0
2017-Nov-25 04:30N 35°24' E 139°41'0 0.0
2017-Nov-25 03:59N 35°24' E 139°41'0 0.0
2017-Nov-25 03:29N 35°24' E 139°41'0 0.0
2017-Nov-25 02:59N 35°24' E 139°41'0 0.0
2017-Nov-25 02:29N 35°24' E 139°41'0 0.0
2017-Nov-25 01:59N 35°24' E 139°41'0 0.1
2017-Nov-25 01:30N 35°24' E 139°41'2 3.0
2017-Nov-25 01:00N 35°25' E 139°42'2 2.8
2017-Nov-25 00:28N 35°26' E 139°41'0 0.0
2017-Nov-24 23:58N 35°26' E 139°41'0 0.0
2017-Nov-24 23:28N 35°26' E 139°41'0 0.0
2017-Nov-24 23:01N 35°26' E 139°41'1 3.0
2017-Nov-24 22:31N 35°26' E 139°42'4 7.2
2017-Nov-24 22:01N 35°23' E 139°43'0 0.3
2017-Nov-24 21:28N 35°23' E 139°44'0 0.1
2017-Nov-24 20:58N 35°23' E 139°44'0 0.1
2017-Nov-24 20:28N 35°23' E 139°44'0 0.0
2017-Nov-24 19:58N 35°23' E 139°44'0 0.0
2017-Nov-24 19:28N 35°23' E 139°44'0 0.1
2017-Nov-24 18:58N 35°23' E 139°44'0 0.0
2017-Nov-24 18:28N 35°23' E 139°44'0 0.0
2017-Nov-24 17:58N 35°23' E 139°44'0 0.0
2017-Nov-24 17:28N 35°23' E 139°44'0 0.0
2017-Nov-24 16:55N 35°23' E 139°44'0 0.0
2017-Nov-24 16:25N 35°23' E 139°44'0 0.2
2017-Nov-24 16:00N 35°23' E 139°44'510.0
2017-Nov-24 15:30N 35°18' E 139°45'510.7
2017-Nov-24 15:00N 35°13' E 139°47'611.9
2017-Nov-24 14:30N 35°07' E 139°46'612.0
2017-Nov-24 14:00N 35°01' E 139°44'  

Dump ship's entire track history